Time;durP1;ratioP1;P1;durP2;ratioP2;P2;SDS_P1;SDS_P2;PMS_P1;PMS_P2;Temp;Humidity;BMP_temperature;BMP_pressure;BME280_temperature;BME280_humidity;BME280_pressure;Samples;Min_cycle;Max_cycle;Signal;HPM_P1;HPM_P2
2022/01/01 00:00:33;;;;;;;47.27;31.17;;;;;;;;;;5065831;28;21016;-82
2022/01/01 00:03:01;;;;;;;36.80;28.00;;;;;;;;;;5065356;28;20648;-82
2022/01/01 00:05:29;;;;;;;46.27;28.53;;;;;;;;;;5062305;28;21125;-82
2022/01/01 00:07:57;;;;;;;31.90;26.00;;;;;;;;;;5066581;28;20721;-82
2022/01/01 00:10:24;;;;;;;34.77;24.30;;;;;;;;;;5059712;28;21210;-82
2022/01/01 00:12:51;;;;;;;34.60;25.77;;;;;;;;;;5058926;28;20679;-82
2022/01/01 00:15:19;;;;;;;31.50;25.63;;;;;;;;;;5057084;28;20750;-82
2022/01/01 00:17:46;;;;;;;25.10;21.77;;;;;;;;;;5055114;28;21033;-82
2022/01/01 00:20:15;;;;;;;30.73;21.97;;;;;;;;;;5051196;28;20801;-82
2022/01/01 00:22:43;;;;;;;23.97;18.67;;;7.10;99.90;;;;;;5055079;28;20803;-82
2022/01/01 00:25:12;;;;;;;22.37;16.57;;;7.30;99.90;;;;;;5056353;28;20665;-81
2022/01/01 00:27:39;;;;;;;24.37;19.33;;;;;;;;;;5059071;28;20640;-81
2022/01/01 00:30:07;;;;;;;23.50;19.37;;;;;;;;;;5055572;28;21342;-81
2022/01/01 00:32:34;;;;;;;20.77;15.07;;;;;;;;;;5059686;28;20637;-81
2022/01/01 00:35:01;;;;;;;21.40;15.90;;;;;;;;;;5051998;28;20723;-81
2022/01/01 00:37:30;;;;;;;17.33;13.93;;;7.20;99.90;;;;;;5057634;28;20682;-81
2022/01/01 00:39:57;;;;;;;17.43;13.30;;;;;;;;;;5055477;28;20720;-81
2022/01/01 00:42:25;;;;;;;15.07;12.90;;;;;;;;;;5061152;28;20681;-81
2022/01/01 00:44:52;;;;;;;14.67;12.87;;;;;;;;;;5060258;28;20658;-81
2022/01/01 00:47:19;;;;;;;14.50;10.97;;;;;;;;;;5059926;28;20733;-81
2022/01/01 00:49:46;;;;;;;16.80;11.20;;;;;;;;;;5058765;28;20717;-81
2022/01/01 00:52:13;;;;;;;13.63;9.55;;;;;;;;;;5054475;28;20737;-81
2022/01/01 00:54:42;;;;;;;11.40;8.70;;;;;;;;;;5054459;28;20196;-81
2022/01/01 00:57:09;;;;;;;12.03;8.90;;;;;;;;;;5060701;28;20703;-81
2022/01/01 00:59:36;;;;;;;12.23;9.40;;;;;;;;;;5058404;28;21068;-81
2022/01/01 01:02:04;;;;;;;10.47;9.37;;;;;;;;;;5059324;28;21094;-81
2022/01/01 01:04:31;;;;;;;11.43;8.40;;;;;;;;;;5057816;28;21175;-81
2022/01/01 01:06:59;;;;;;;13.73;9.25;;;;;;;;;;5059010;28;21224;-81
2022/01/01 01:09:28;;;;;;;12.27;9.43;;;;;;;;;;5061107;28;20563;-80
2022/01/01 01:11:57;;;;;;;10.98;7.65;;;;;;;;;;5061018;28;20211;-82
2022/01/01 01:14:27;;;;;;;11.10;8.43;;;;;;;;;;5054802;28;20286;-82
2022/01/01 01:16:58;;;;;;;10.52;8.40;;;;;;;;;;5049306;28;20693;-81
2022/01/01 01:19:25;;;;;;;12.00;8.37;;;;;;;;;;5059421;28;20200;-81
2022/01/01 01:21:53;;;;;;;9.93;8.93;;;;;;;;;;5060930;28;20669;-81
2022/01/01 01:24:23;;;;;;;13.00;9.27;;;;;;;;;;5057390;28;20630;-82
2022/01/01 01:26:53;;;;;;;13.17;9.43;;;;;;;;;;5066319;28;20657;-82
2022/01/01 01:29:24;;;;;;;12.03;8.97;;;;;;;;;;5056344;28;20634;-81
2022/01/01 01:31:53;;;;;;;11.33;8.37;;;;;;;;;;5056879;28;20642;-81
2022/01/01 01:34:21;;;;;;;12.07;8.80;;;;;;;;;;5060429;28;20621;-81
2022/01/01 01:36:48;;;;;;;10.33;8.37;;;;;;;;;;5058508;28;20649;-81
2022/01/01 01:39:15;;;;;;;14.60;9.40;;;;;;;;;;5060439;28;20618;-81
2022/01/01 01:41:44;;;;;;;10.60;8.33;;;;;;;;;;5063003;28;20669;-81
2022/01/01 01:44:26;;;;;;;14.53;9.10;;;;;;;;;;5060657;28;20724;-81
2022/01/01 01:46:53;;;;;;;14.43;8.93;;;;;;;;;;5057501;28;20618;-81
2022/01/01 01:49:20;;;;;;;11.30;8.57;;;;;;;;;;5062731;28;20630;-82
2022/01/01 01:51:48;;;;;;;14.53;9.33;;;;;;;;;;5061694;28;20610;-82
2022/01/01 01:54:16;;;;;;;13.07;9.70;;;;;;;;;;5062603;28;20616;-81
2022/01/01 01:56:45;;;;;;;12.33;8.80;;;;;;;;;;5058839;28;20621;-81
2022/01/01 01:59:12;;;;;;;13.73;10.27;;;;;;;;;;5055015;28;20728;-82
2022/01/01 02:01:40;;;;;;;11.50;9.47;;;;;;;;;;5063642;28;20738;-81
2022/01/01 02:04:08;;;;;;;11.90;9.50;;;;;;;;;;5060498;28;20630;-81
2022/01/01 02:06:36;;;;;;;13.70;10.33;;;;;;;;;;5059095;28;20700;-82
2022/01/01 02:09:04;;;;;;;10.47;8.73;;;;;;;;;;5065242;28;21000;-81
2022/01/01 02:11:33;;;;;;;12.63;10.00;;;;;;;;;;5052715;28;20661;-82
2022/01/01 02:14:15;;;;;;;11.60;8.80;;;;;;;;;;5065454;28;20633;-81
2022/01/01 02:17:08;;;;;;;10.67;8.20;;;;;;;;;;5060883;28;20647;-81
2022/01/01 02:19:46;;;;;;;15.43;9.90;;;;;;;;;;5057251;28;20629;-82
2022/01/01 02:22:15;;;;;;;11.60;8.73;;;;;;;;;;5056864;28;21069;-82
2022/01/01 02:24:42;;;;;;;10.43;8.20;;;;;;;;;;5059016;28;20625;-81
2022/01/01 02:27:11;;;;;;;10.47;8.50;;;;;;;;;;5056468;28;20637;-82
2022/01/01 02:29:47;;;;;;;12.70;9.33;;;;;;;;;;5063493;28;20685;-81
2022/01/01 02:32:15;;;;;;;14.13;8.50;;;;;;;;;;5057130;28;21124;-82
2022/01/01 02:34:43;;;;;;;14.50;10.27;;;;;;;;;;5058841;28;20741;-81
2022/01/01 02:37:10;;;;;;;15.70;10.20;;;;;;;;;;5057450;28;20712;-82
2022/01/01 02:39:39;;;;;;;14.90;9.47;;;;;;;;;;5064319;28;21073;-82
2022/01/01 02:42:10;;;;;;;10.30;8.90;;;;;;;;;;5057631;28;21245;-81
2022/01/01 02:44:37;;;;;;;13.93;10.83;;;;;;;;;;5056865;28;21001;-82
2022/01/01 02:47:04;;;;;;;12.30;9.53;;;;;;;;;;5059594;28;20625;-81
2022/01/01 02:49:32;;;;;;;11.40;9.63;;;;;;;;;;5060854;28;20658;-81
2022/01/01 02:51:59;;;;;;;12.57;8.57;;;;;;;;;;5061550;28;20669;-81
2022/01/01 02:54:26;;;;;;;11.80;8.63;;;;;;;;;;5059144;28;20692;-82
2022/01/01 02:56:55;;;;;;;13.20;9.20;;;;;;;;;;5060552;28;20783;-82
2022/01/01 02:59:22;;;;;;;11.33;9.10;;;;;;;;;;5060735;28;20630;-82
2022/01/01 03:01:49;;;;;;;12.47;9.63;;;;;;;;;;5064043;28;20765;-82
2022/01/01 03:04:17;;;;;;;12.90;9.23;;;;;;;;;;5060220;28;20614;-82
2022/01/01 03:06:52;;;;;;;14.27;10.10;;;;;;;;;;5051968;28;20654;-82
2022/01/01 03:09:19;;;;;;;11.53;10.17;;;;;;;;;;5057176;28;20617;-81
2022/01/01 03:11:46;;;;;;;17.53;10.90;;;;;;;;;;5055832;28;20731;-82
2022/01/01 03:14:17;;;;;;;9.60;8.27;;;;;;;;;;5059863;28;20636;-82
2022/01/01 03:16:44;;;;;;;12.53;8.70;;;;;;;;;;5060715;28;20641;-82
2022/01/01 03:19:12;;;;;;;12.17;8.53;;;;;;;;;;5056106;28;20634;-82
2022/01/01 03:21:39;;;;;;;12.97;9.47;;;;;;;;;;5057465;28;21204;-82
2022/01/01 03:24:07;;;;;;;14.13;10.37;;;;;;;;;;5055180;28;20622;-82
2022/01/01 03:26:34;;;;;;;12.83;9.30;;;;;;;;;;5055310;28;20718;-81
2022/01/01 03:29:01;;;;;;;12.00;9.73;;;;;;;;;;5060114;28;20641;-81
2022/01/01 03:31:30;;;;;;;13.03;9.77;;;;;;;;;;5060791;28;20637;-82
2022/01/01 03:33:58;;;;;;;14.70;9.27;;;;;;;;;;5062072;28;21007;-82
2022/01/01 03:36:25;;;;;;;11.07;8.67;;;;;;;;;;5058502;28;20630;-82
2022/01/01 03:38:52;;;;;;;8.67;7.67;;;;;;;;;;5061930;28;20630;-81
2022/01/01 03:41:20;;;;;;;9.10;7.00;;;;;;;;;;5061067;28;20673;-81
2022/01/01 03:43:47;;;;;;;12.60;7.17;;;;;;;;;;5061299;28;21209;-83
2022/01/01 03:46:14;;;;;;;9.03;6.80;;;;;;;;;;5068112;28;21207;-81
2022/01/01 03:48:43;;;;;;;9.73;8.17;;;;;;;;;;5059113;28;20684;-81
2022/01/01 03:51:10;;;;;;;13.40;8.53;;;;;;;;;;5058093;28;20633;-82
2022/01/01 03:53:38;;;;;;;11.27;7.50;;;;;;;;;;5057327;28;20623;-81
2022/01/01 03:56:07;;;;;;;9.83;7.50;;;;;;;;;;5057720;28;20626;-81
2022/01/01 03:58:36;;;;;;;11.10;8.30;;;;;;;;;;5060231;28;20629;-81
2022/01/01 04:01:03;;;;;;;11.30;7.67;;;;;;;;;;5052360;28;20810;-81
2022/01/01 04:03:31;;;;;;;9.90;7.53;;;;;;;;;;5059560;28;20624;-81
2022/01/01 04:05:59;;;;;;;11.40;8.07;;;;;;;;;;5057705;28;20621;-82
2022/01/01 04:08:29;;;;;;;10.53;8.47;;;;;;;;;;5057432;28;20626;-82
2022/01/01 04:10:57;;;;;;;9.97;7.50;;;;;;;;;;5058437;28;20679;-81
2022/01/01 04:13:24;;;;;;;9.63;6.70;;;;;;;;;;5057489;28;20625;-81
2022/01/01 04:15:51;;;;;;;8.03;6.73;;;;;;;;;;5057365;28;20637;-81
2022/01/01 04:18:27;;;;;;;9.40;7.47;;;;;;;;;;5061789;28;20626;-81
2022/01/01 04:20:54;;;;;;;6.20;5.50;;;;;;;;;;5054077;28;20660;-81
2022/01/01 04:23:24;;;;;;;12.97;6.77;;;;;;;;;;5056329;28;20639;-82
2022/01/01 04:25:52;;;;;;;8.60;7.27;;;;;;;;;;5057861;28;20630;-81
2022/01/01 04:28:19;;;;;;;9.40;6.90;;;;;;;;;;5057816;28;20638;-81
2022/01/01 04:30:46;;;;;;;11.50;6.13;;;;;;;;;;5059489;28;20647;-81
2022/01/01 04:33:14;;;;;;;8.53;6.70;;;;;;;;;;5058810;28;20698;-81
2022/01/01 04:35:41;;;;;;;7.27;5.70;;;;;;;;;;5055882;28;21097;-82
2022/01/01 04:38:19;;;;;;;7.80;6.03;;;;;;;;;;5062076;28;20633;-81
2022/01/01 04:40:48;;;;;;;8.00;6.47;;;;;;;;;;5061220;28;20638;-81
2022/01/01 04:43:15;;;;;;;8.57;5.90;;;;;;;;;;5056117;28;20630;-81
2022/01/01 04:45:42;;;;;;;9.00;6.20;;;;;;;;;;5058335;28;20621;-81
2022/01/01 04:48:09;;;;;;;9.73;7.03;;;;;;;;;;5059373;28;20641;-81
2022/01/01 04:50:37;;;;;;;8.97;6.37;;;;;;;;;;5055993;28;21196;-81
2022/01/01 04:53:04;;;;;;;7.97;6.00;;;;;;;;;;5054868;28;20699;-81
2022/01/01 04:55:31;;;;;;;5.80;5.23;;;;;;;;;;5052690;28;20905;-82
2022/01/01 04:58:00;;;;;;;7.07;5.47;;;;;;;;;;5056684;28;20648;-82
2022/01/01 05:00:30;;;;;;;6.90;5.37;;;;;;;;;;5063736;28;20965;-82
2022/01/01 05:02:57;;;;;;;5.87;5.30;;;;;;;;;;5061677;28;20719;-81
2022/01/01 05:05:25;;;;;;;7.70;5.20;;;;;;;;;;5062452;28;20637;-81
2022/01/01 05:07:52;;;;;;;6.80;5.30;;;;;;;;;;5060689;28;20692;-81
2022/01/01 05:10:19;;;;;;;6.03;4.80;;;;;;;;;;5058667;28;20641;-81
2022/01/01 05:12:47;;;;;;;6.60;5.57;;;;;;;;;;5058185;28;20638;-81
2022/01/01 05:15:15;;;;;;;8.93;5.70;;;;;;;;;;5062506;28;20640;-81
2022/01/01 05:17:42;;;;;;;6.53;4.63;;;;;;;;;;5053910;28;20648;-81
2022/01/01 05:20:10;;;;;;;7.17;6.50;;;;;;;;;;5061332;28;20974;-81
2022/01/01 05:22:37;;;;;;;7.30;5.30;;;;;;;;;;5055041;28;20653;-81
2022/01/01 05:25:05;;;;;;;5.93;5.37;;;;;;;;;;5061315;28;21186;-81
2022/01/01 05:27:35;;;;;;;6.07;5.47;;;;;;;;;;5061979;28;20641;-81
2022/01/01 05:30:03;;;;;;;7.60;5.93;;;;;;;;;;5066419;28;21072;-81
2022/01/01 05:32:31;;;;;;;7.13;5.63;;;;;;;;;;5066257;28;20628;-81
2022/01/01 05:34:58;;;;;;;6.13;5.37;;;;;;;;;;5057706;28;20656;-82
2022/01/01 05:37:26;;;;;;;9.43;5.70;;;;;;;;;;5060499;28;20649;-81
2022/01/01 05:39:53;;;;;;;13.53;6.27;;;;;;;;;;5060608;28;20708;-81
2022/01/01 05:42:20;;;;;;;10.40;5.90;;;;;;;;;;5058493;28;20683;-81
2022/01/01 05:44:48;;;;;;;7.37;5.97;;;;;;;;;;5058375;28;20634;-81
2022/01/01 05:47:15;;;;;;;6.93;6.10;;;;;;;;;;5061947;28;20625;-82
2022/01/01 05:49:43;;;;;;;6.83;6.13;;;;;;;;;;5060396;28;20634;-82
2022/01/01 05:52:11;;;;;;;7.20;6.40;;;;;;;;;;5056121;28;20657;-82
2022/01/01 05:54:38;;;;;;;7.80;5.97;;;;;;;;;;5060216;28;21027;-82
2022/01/01 05:57:07;;;;;;;6.77;5.90;;;;;;;;;;5059788;28;21197;-82
2022/01/01 05:59:34;;;;;;;8.50;5.53;;;;;;;;;;5058132;28;20636;-82
2022/01/01 06:02:02;;;;;;;7.70;6.30;;;;;;;;;;5063002;28;20237;-83
2022/01/01 06:04:31;;;;;;;8.20;6.10;;;;;;;;;;5058516;28;20571;-83
2022/01/01 06:07:00;;;;;;;8.03;6.10;;;;;;;;;;5059319;28;20195;-83
2022/01/01 06:09:27;;;;;;;9.93;5.97;;;;;;;;;;5055274;28;21213;-83
2022/01/01 06:11:54;;;;;;;10.40;6.53;;;;;;;;;;5059967;28;21055;-83
2022/01/01 06:14:22;;;;;;;10.03;6.40;;;;;;;;;;5056518;28;21186;-83
2022/01/01 06:16:49;;;;;;;8.47;6.07;;;;;;;;;;5061275;28;20633;-83
2022/01/01 06:19:16;;;;;;;9.52;6.03;;;;;;;;;;5061853;28;20641;-83
2022/01/01 06:21:44;;;;;;;7.47;6.77;;;;;;;;;;5055137;28;20235;-83
2022/01/01 06:24:12;;;;;;;8.02;5.88;;;;;;;;;;5064922;28;20683;-83
2022/01/01 06:26:39;;;;;;;7.47;5.77;;;;;;;;;;5061200;28;20557;-83
2022/01/01 06:29:07;;;;;;;9.73;5.57;;;;;;;;;;5063263;28;20649;-84
2022/01/01 06:31:34;;;;;;;7.80;5.65;;;;;;;;;;5063558;28;20196;-82
2022/01/01 06:34:01;;;;;;;9.17;7.60;;;;;;;;;;5063506;28;20192;-82
2022/01/01 06:36:28;;;;;;;8.30;6.10;;;;;;;;;;5063495;28;20633;-82
2022/01/01 06:38:56;;;;;;;7.77;5.83;;;;;;;;;;5060981;28;20638;-82
2022/01/01 06:41:25;;;;;;;11.93;5.83;;;;;;;;;;5066600;28;20687;-83
2022/01/01 06:43:53;;;;;;;9.67;6.10;;;;;;;;;;5058841;28;20634;-82
2022/01/01 06:46:20;;;;;;;7.27;6.10;;;;;;;;;;5051419;28;20745;-82
2022/01/01 06:48:47;;;;;;;6.82;4.60;;;;;;;;;;5063044;28;20633;-82
2022/01/01 06:51:15;;;;;;;5.87;5.00;;;;;;;;;;5057960;28;20195;-82
2022/01/01 06:53:42;;;;;;;5.10;4.60;;;;;;;;;;5056877;28;20631;-83
2022/01/01 06:56:10;;;;;;;5.67;5.17;;;;;;;;;;5058658;28;20630;-83
2022/01/01 06:58:39;;;;;;;5.70;5.13;;;7.70;99.90;;;;;;5054186;28;20672;-82
2022/01/01 07:01:07;;;;;;;5.47;4.27;;;;;;;;;;5060221;28;21024;-83
2022/01/01 07:03:34;;;;;;;6.67;5.00;;;;;;;;;;5060798;28;20666;-82
2022/01/01 07:06:01;;;;;;;5.53;5.00;;;;;;;;;;5064137;28;20636;-82
2022/01/01 07:08:29;;;;;;;8.57;4.63;;;;;;;;;;5064032;28;20622;-82
2022/01/01 07:10:56;;;;;;;6.57;4.20;;;;;;;;;;5059642;28;21316;-82
2022/01/01 07:13:24;;;;;;;6.43;5.00;;;;;;;;;;5059548;28;20632;-82
2022/01/01 07:15:53;;;;;;;7.53;6.00;;;;;;;;;;5058732;28;20737;-82
2022/01/01 07:18:20;;;;;;;6.50;5.40;;;;;;;;;;5059804;28;20625;-82
2022/01/01 07:20:48;;;;;;;6.10;4.90;;;;;;;;;;5062391;28;20629;-82
2022/01/01 07:23:15;;;;;;;6.67;5.13;;;;;;;;;;5056183;28;20669;-82
2022/01/01 07:25:42;;;;;;;7.07;4.93;;;;;;;;;;5059579;28;20680;-83
2022/01/01 07:28:13;;;;;;;5.77;4.30;;;;;;;;;;5060877;28;20690;-82
2022/01/01 07:30:40;;;;;;;4.73;4.20;;;;;;;;;;5057547;28;20662;-82
2022/01/01 07:33:09;;;;;;;8.67;4.33;;;;;;;;;;5059498;28;20629;-82
2022/01/01 07:35:37;;;;;;;4.63;4.23;;;;;;;;;;5051871;28;20965;-82
2022/01/01 07:38:05;;;;;;;7.10;4.70;;;;;;;;;;5058737;28;20662;-82
2022/01/01 07:40:34;;;;;;;5.53;4.80;;;;;;;;;;5058031;28;20729;-82
2022/01/01 07:43:02;;;;;;;5.80;4.17;;;;;;;;;;5057928;28;20669;-83
2022/01/01 07:45:29;;;;;;;5.43;4.93;;;;;;;;;;5051942;28;20661;-82
2022/01/01 07:47:56;;;;;;;9.10;5.97;;;;;;;;;;5056432;28;20614;-82
2022/01/01 07:50:25;;;;;;;6.20;5.07;;;;;;;;;;5059044;28;20645;-82
2022/01/01 07:52:52;;;;;;;7.67;6.20;;;;;;;;;;5060120;28;20637;-82
2022/01/01 07:55:19;;;;;;;5.10;4.60;;;;;;;;;;5054782;28;20633;-82
2022/01/01 07:57:47;;;;;;;7.30;5.80;;;;;;;;;;5062918;28;21353;-83
2022/01/01 08:00:14;;;;;;;6.23;4.80;;;;;;;;;;5058331;28;20684;-82
2022/01/01 08:02:42;;;;;;;7.03;5.47;;;;;;;;;;5061815;28;20984;-82
2022/01/01 08:05:10;;;;;;;7.93;5.70;;;8.30;99.90;;;;;;5058177;28;20825;-82
2022/01/01 08:07:39;;;;;;;6.10;5.20;;;;;;;;;;5058759;28;20562;-83
2022/01/01 08:10:07;;;;;;;5.70;4.90;;;;;;;;;;5056783;28;20618;-83
2022/01/01 08:12:34;;;;;;;6.30;5.40;;;;;;;;;;5059964;28;20622;-83
2022/01/01 08:15:01;;;;;;;11.07;5.20;;;;;;;;;;5054713;28;20630;-82
2022/01/01 08:17:29;;;;;;;4.30;3.83;;;;;;;;;;5058586;28;20626;-82
2022/01/01 08:19:57;;;;;;;6.70;4.90;;;;;;;;;;5056758;28;20653;-83
2022/01/01 08:22:24;;;;;;;4.93;4.33;;;;;;;;;;5054870;28;20701;-82
2022/01/01 08:24:53;;;;;;;7.33;4.73;;;8.20;99.90;;;;;;5060438;28;21225;-83
2022/01/01 08:27:20;;;;;;;5.23;4.50;;;;;;;;;;5058006;28;20756;-83
2022/01/01 08:29:48;;;;;;;4.43;4.00;;;;;;;;;;5061442;28;20625;-82
2022/01/01 08:32:15;;;;;;;6.63;4.63;;;;;;;;;;5058579;28;20630;-83
2022/01/01 08:34:42;;;;;;;7.30;4.83;;;;;;;;;;5063745;28;20665;-83
2022/01/01 08:37:09;;;;;;;6.57;4.67;;;;;;;;;;5068457;28;21188;-83
2022/01/01 08:39:38;;;;;;;8.63;5.10;;;8.30;99.90;;;;;;5068292;28;20637;-82
2022/01/01 08:42:09;;;;;;;6.50;5.30;;;;;;;;;;5066359;28;20625;-82
2022/01/01 08:44:36;;;;;;;5.40;4.30;;;;;;;;;;5061060;28;20652;-83
2022/01/01 08:47:04;;;;;;;9.30;4.77;;;8.20;99.90;;;;;;5067877;28;21292;-83
2022/01/01 08:49:31;;;;;;;9.17;7.03;;;;;;;;;;5065014;28;20625;-83
2022/01/01 08:51:59;;;;;;;4.80;4.40;;;;;;;;;;5069464;28;20632;-83
2022/01/01 08:54:26;;;;;;;6.67;5.50;;;;;;;;;;5069346;28;20629;-83
2022/01/01 08:56:53;;;;;;;7.90;5.60;;;;;;;;;;5064955;28;20633;-83
2022/01/01 08:59:22;;;;;;;6.23;4.37;;;8.40;99.90;;;;;;5066288;28;21321;-83
2022/01/01 09:02:01;;;;;;;6.27;3.97;;;;;;;;;;5068479;28;20668;-84
2022/01/01 09:04:28;;;;;;;4.40;4.00;;;;;;;;;;5065397;28;20665;-83
2022/01/01 09:06:56;;;;;;;5.17;3.60;;;;;;;;;;5061994;28;21266;-82
2022/01/01 09:09:23;;;;;;;4.80;4.30;;;;;;;;;;5061466;28;20650;-83
2022/01/01 09:11:50;;;;;;;5.70;4.80;;;;;;;;;;5057537;28;21106;-83
2022/01/01 09:14:18;;;;;;;4.47;4.07;;;;;;;;;;5064343;28;20641;-83
2022/01/01 09:16:46;;;;;;;3.80;3.40;;;;;;;;;;5066879;28;20621;-83
2022/01/01 09:19:14;;;;;;;5.00;4.20;;;;;;;;;;5063144;28;20701;-83
2022/01/01 09:21:41;;;;;;;4.20;3.13;;;;;;;;;;5059749;28;20658;-83
2022/01/01 09:24:08;;;;;;;3.63;3.27;;;;;;;;;;5063845;28;20661;-83
2022/01/01 09:26:36;;;;;;;4.90;3.40;;;;;;;;;;5063773;28;20626;-83
2022/01/01 09:29:04;;;;;;;4.13;3.17;;;;;;;;;;5062858;28;20622;-82
2022/01/01 09:31:32;;;;;;;3.60;3.30;;;;;;;;;;5060765;28;21081;-83
2022/01/01 09:34:03;;;;;;;3.67;3.13;;;;;;;;;;5068606;28;20626;-83
2022/01/01 09:36:38;;;;;;;3.90;2.83;;;9.40;99.90;;;;;;5066714;28;20649;-83
2022/01/01 09:39:15;;;;;;;3.60;3.30;;;9.40;99.90;;;;;;5064624;28;20735;-83
2022/01/01 09:42:24;;;;;;;8.63;3.40;;;9.50;99.90;;;;;;5068929;28;20744;-84
2022/01/01 09:44:55;;;;;;;3.00;2.80;;;;;;;;;;5050515;28;20688;-84
2022/01/01 09:47:22;;;;;;;3.60;2.80;;;;;;;;;;5053627;28;20614;-83
2022/01/01 09:49:51;;;;;;;5.27;2.70;;;9.70;99.90;;;;;;5051570;28;20626;-83
2022/01/01 09:52:33;;;;;;;4.50;2.87;;;;;;;;;;5051109;28;21213;-83
2022/01/01 09:55:00;;;;;;;3.50;3.20;;;;;;;;;;5043983;28;20722;-84
2022/01/01 09:57:28;;;;;;;2.93;2.63;;;;;;;;;;5050455;28;20645;-84
2022/01/01 09:59:55;;;;;;;3.60;3.13;;;9.80;99.90;;;;;;5048382;28;20956;-84
2022/01/01 10:02:33;;;;;;;3.50;3.20;;;;;;;;;;5048718;28;21446;-85
2022/01/01 10:08:02;;;;;;;2.70;2.50;;;;;;;;;;5046678;28;20622;-83
2022/01/01 10:10:29;;;;;;;2.97;2.30;;;;;;;;;;5054080;28;21035;-85
2022/01/01 10:12:57;;;;;;;2.80;2.43;;;;;;;;;;5050026;28;20630;-84
2022/01/01 10:15:24;;;;;;;2.63;2.43;;;;;;;;;;5051928;28;20676;-84
2022/01/01 10:17:52;;;;;;;3.30;2.77;;;;;;;;;;5050129;28;21094;-84
2022/01/01 10:20:25;;;;;;;4.40;2.27;;;;;;;;;;5049821;28;20734;-84
2022/01/01 10:22:56;;;;;;;3.03;2.47;;;;;;;;;;5048533;28;21001;-84
2022/01/01 10:28:10;;;;;;;6.00;2.27;;;;;;;;;;5048814;28;20777;-84
2022/01/01 10:30:40;;;;;;;2.10;1.90;;;10.50;99.90;;;;;;5054247;28;21213;-84
2022/01/01 10:33:09;;;;;;;3.97;2.70;;;10.50;99.90;;;;;;5051062;28;21207;-84
2022/01/01 10:35:41;;;;;;;2.43;2.23;;;10.60;99.90;;;;;;5042240;28;20709;-84
2022/01/01 10:38:11;;;;;;;3.37;2.27;;;10.60;99.90;;;;;;5048623;28;21222;-83
2022/01/01 10:40:39;;;;;;;2.63;2.43;;;;;;;;;;5048991;28;20797;-84
2022/01/01 10:43:06;;;;;;;2.87;2.57;;;;;;;;;;5048238;28;22122;-84
2022/01/01 10:45:35;;;;;;;3.00;2.33;;;;;;;;;;5045878;28;20640;-84
2022/01/01 10:48:24;;;;;;;6.67;3.03;;;10.70;99.90;;;;;;5048526;28;21030;-84
2022/01/01 10:50:55;;;;;;;3.00;2.10;;;10.90;99.90;;;;;;5046296;28;20636;-83
2022/01/01 10:53:24;;;;;;;4.73;3.40;;;10.90;99.90;;;;;;5047674;28;20631;-83
2022/01/01 10:55:53;;;;;;;2.37;1.80;;;11.00;99.90;;;;;;5045341;28;20635;-83
2022/01/01 10:58:24;;;;;;;2.93;1.77;;;10.90;99.90;;;;;;5043918;28;20652;-83
2022/01/01 11:00:51;;;;;;;5.30;2.47;;;;;;;;;;5044967;28;20635;-83
2022/01/01 11:03:20;;;;;;;2.60;1.90;;;11.00;99.90;;;;;;5040424;28;20665;-84
2022/01/01 11:05:51;;;;;;;2.30;1.93;;;11.10;99.90;;;;;;5044504;28;20989;-84
2022/01/01 11:08:19;;;;;;;2.30;1.93;;;11.20;99.90;;;;;;5041305;28;20650;-83
2022/01/01 11:10:47;;;;;;;2.07;1.73;;;;;;;;;;5040797;28;20661;-84
2022/01/01 11:13:16;;;;;;;1.60;1.47;;;11.40;99.90;;;;;;5041729;28;20628;-82
2022/01/01 11:15:43;;;;;;;4.00;1.60;;;;;;;;;;5035632;28;20644;-82
2022/01/01 11:18:11;;;;;;;4.30;1.70;;;;;;;;;;5037932;28;20639;-82
2022/01/01 11:20:39;;;;;;;2.60;2.30;;;;;;;;;;5038691;28;20646;-82
2022/01/01 11:23:09;;;;;;;5.10;3.23;;;11.50;99.90;;;;;;5042218;28;20636;-82
2022/01/01 11:25:38;;;;;;;4.43;3.97;;;11.80;99.90;;;;;;5038125;28;20664;-82
2022/01/01 11:28:08;;;;;;;4.07;3.30;;;11.70;99.90;;;;;;5034246;28;21241;-82
2022/01/01 11:30:38;;;;;;;4.50;3.73;;;11.80;99.90;;;;;;5043912;28;21447;-83
2022/01/01 11:33:07;;;;;;;7.03;5.67;;;11.80;99.90;;;;;;5035231;28;20642;-82
2022/01/01 11:35:36;;;;;;;5.60;4.80;;;11.80;99.90;;;;;;5042399;28;20631;-82
2022/01/01 11:38:06;;;;;;;6.37;5.77;;;11.80;99.90;;;;;;5043165;28;20629;-82
2022/01/01 11:40:43;;;;;;;6.17;5.57;;;11.70;99.90;;;;;;5039706;28;20629;-82
2022/01/01 11:43:35;;;;;;;8.30;5.60;;;11.70;99.90;;;;;;5035340;28;20994;-82
2022/01/01 11:46:06;;;;;;;5.93;5.00;;;11.60;99.90;;;;;;5040757;28;20633;-82
2022/01/01 11:48:36;;;;;;;6.70;5.77;;;;;;;;;;5042911;28;20632;-82
2022/01/01 11:51:20;;;;;;;8.87;6.47;;;;;;;;;;5041743;28;21217;-82
2022/01/01 11:54:16;;;;;;;7.67;6.87;;;11.70;99.90;;;;;;5038312;28;20634;-81
2022/01/01 11:57:05;;;;;;;9.97;6.73;;;;;;;;;;5043104;28;20635;-82
2022/01/01 11:59:40;;;;;;;7.40;6.10;;;11.70;99.90;;;;;;5047239;28;20620;-82
2022/01/01 12:02:29;;;;;;;7.50;5.80;;;11.70;99.90;;;;;;5042580;28;20639;-83
2022/01/01 12:05:08;;;;;;;6.17;5.47;;;11.80;99.90;;;;;;5042585;28;20766;-82
2022/01/01 12:08:00;;;;;;;8.70;6.30;;;11.80;99.90;;;;;;5039474;28;20994;-82
2022/01/01 12:10:30;;;;;;;7.17;6.47;;;11.80;99.90;;;;;;5038391;28;20629;-82
2022/01/01 12:13:00;;;;;;;6.63;5.50;;;11.80;99.90;;;;;;5038150;28;21225;-82
2022/01/01 12:15:31;;;;;;;5.30;4.60;;;11.90;99.90;;;;;;5041437;28;20638;-82
2022/01/01 12:18:01;;;;;;;6.40;5.03;;;12.00;99.90;;;;;;5039354;28;20660;-82
2022/01/01 12:20:32;;;;;;;4.50;4.07;;;12.00;99.90;;;;;;5039319;28;20661;-82
2022/01/01 12:23:02;;;;;;;6.53;5.23;;;12.20;99.90;;;;;;5041487;28;20639;-82
2022/01/01 12:25:32;;;;;;;6.67;5.23;;;12.10;99.90;;;;;;5038861;28;21296;-82
2022/01/01 12:28:04;;;;;;;7.73;5.53;;;12.10;99.90;;;;;;5037281;28;20637;-82
2022/01/01 12:30:38;;;;;;;6.03;4.70;;;12.00;99.90;;;;;;5039002;28;20993;-82
2022/01/01 12:33:06;;;;;;;6.57;5.60;;;;;;;;;;5039598;28;20636;-82
2022/01/01 12:35:47;;;;;;;5.67;4.90;;;12.10;99.90;;;;;;5040855;28;20637;-82
2022/01/01 12:38:17;;;;;;;7.47;6.43;;;12.00;99.90;;;;;;5044099;28;20640;-82
2022/01/01 12:41:05;;;;;;;6.57;5.77;;;12.20;99.90;;;;;;5044653;28;21181;-83
2022/01/01 12:43:42;;;;;;;10.13;5.93;;;12.20;99.90;;;;;;5045245;28;20634;-82
2022/01/01 12:46:10;;;;;;;7.07;5.07;;;;;;;;;;5045503;28;21183;-82
2022/01/01 12:48:38;;;;;;;6.30;5.50;;;12.30;99.90;;;;;;5045689;28;20652;-82
2022/01/01 12:51:07;;;;;;;5.97;5.43;;;12.20;99.90;;;;;;5042550;28;20730;-82
2022/01/01 12:53:37;;;;;;;7.17;5.70;;;12.10;99.90;;;;;;5046282;28;20630;-82
2022/01/01 12:56:10;;;;;;;6.00;5.40;;;12.00;99.90;;;;;;5041716;28;21227;-82
2022/01/01 12:58:44;;;;;;;6.80;5.53;;;12.30;99.90;;;;;;5044677;28;20654;-82
2022/01/01 13:01:16;;;;;;;9.93;6.20;;;12.20;99.90;;;;;;5045246;28;21081;-84
2022/01/01 13:03:45;;;;;;;6.37;5.07;;;12.20;99.90;;;;;;5044744;28;20629;-83
2022/01/01 13:06:24;;;;;;;6.97;4.67;;;12.20;99.90;;;;;;5045628;28;20650;-83
2022/01/01 13:08:52;;;;;;;9.63;4.50;;;;;;;;;;5045220;28;20641;-83
2022/01/01 13:11:19;;;;;;;8.70;6.03;;;;;;;;;;5044047;28;20644;-83
2022/01/01 13:13:48;;;;;;;6.00;5.20;;;;;;;;;;5044401;28;20630;-84
2022/01/01 13:16:15;;;;;;;6.17;5.37;;;;;;;;;;5042687;28;21228;-83
2022/01/01 13:18:42;;;;;;;7.27;6.13;;;;;;;;;;5046462;28;20634;-84
2022/01/01 13:21:10;;;;;;;7.10;5.73;;;;;;;;;;5048610;28;20626;-83
2022/01/01 13:23:37;;;;;;;6.07;5.00;;;;;;;;;;5050134;28;20641;-84
2022/01/01 13:26:04;;;;;;;6.07;4.23;;;;;;;;;;5047680;28;20637;-84
2022/01/01 13:28:33;;;;;;;5.10;4.60;;;12.20;99.90;;;;;;5048427;28;21018;-83
2022/01/01 13:31:04;;;;;;;6.00;4.60;;;12.80;99.90;;;;;;5047335;28;20630;-83
2022/01/01 13:33:32;;;;;;;8.40;5.20;;;;;;;;;;5049277;28;20637;-83
2022/01/01 13:36:03;;;;;;;6.77;4.80;;;12.10;99.90;;;;;;5047630;28;20681;-84
2022/01/01 13:38:31;;;;;;;5.53;4.73;;;12.80;99.90;;;;;;5048628;28;20637;-84
2022/01/01 13:41:00;;;;;;;6.17;5.53;;;12.20;99.90;;;;;;5046906;28;20614;-83
2022/01/01 13:43:28;;;;;;;7.17;5.33;;;12.20;99.90;;;;;;5048931;28;20649;-84
2022/01/01 13:46:12;;;;;;;6.93;5.70;;;12.30;99.90;;;;;;5046584;28;20658;-84
2022/01/01 13:48:45;;;;;;;6.63;5.50;;;12.30;99.90;;;;;;5048139;28;20648;-84
2022/01/01 13:51:12;;;;;;;7.13;6.10;;;;;;;;;;5048832;28;21170;-83
2022/01/01 13:53:40;;;;;;;6.90;6.20;;;;;;;;;;5048180;28;20646;-83
2022/01/01 13:56:12;;;;;;;7.90;6.00;;;12.30;99.90;;;;;;5047380;28;20636;-83
2022/01/01 13:58:39;;;;;;;6.80;6.10;;;;;;;;;;5048272;28;20632;-83
2022/01/01 14:01:07;;;;;;;7.40;5.67;;;;;;;;;;5047775;28;20619;-84
2022/01/01 14:03:36;;;;;;;8.37;6.43;;;;;;;;;;5043979;28;20637;-83
2022/01/01 14:06:03;;;;;;;7.13;5.40;;;;;;;;;;5047969;28;20711;-83
2022/01/01 14:08:30;;;;;;;6.47;5.43;;;;;;;;;;5049741;28;21091;-83
2022/01/01 14:10:59;;;;;;;5.50;4.87;;;11.80;99.90;;;;;;5049430;28;20972;-84
2022/01/01 14:13:34;;;;;;;5.37;4.80;;;;;;;;;;5049661;28;20614;-83
2022/01/01 14:16:14;;;;;;;8.57;6.10;;;11.80;99.90;;;;;;5048102;28;20834;-83
2022/01/01 14:18:44;;;;;;;5.47;4.50;;;;;;;;;;5047501;28;20625;-84
2022/01/01 14:21:11;;;;;;;5.30;4.40;;;;;;;;;;5049526;28;20735;-83
2022/01/01 14:23:40;;;;;;;9.53;5.57;;;12.00;99.90;;;;;;5048146;28;20639;-83
2022/01/01 14:26:09;;;;;;;5.93;4.17;;;11.90;99.90;;;;;;5045952;28;20768;-83